sensor_id;sensor_type;location;lat;lon;timestamp;P1;durP1;ratioP1;P2;durP2;ratioP2
14923;SDS011;7554;43.600;1.480;2023-07-16T00:02:15;6.30;;;3.17;;
14923;SDS011;7554;43.600;1.480;2023-07-16T00:04:42;7.70;;;3.73;;
14923;SDS011;7554;43.600;1.480;2023-07-16T00:07:11;9.17;;;3.17;;
14923;SDS011;7554;43.600;1.480;2023-07-16T00:09:38;7.80;;;3.80;;
14923;SDS011;7554;43.600;1.480;2023-07-16T00:12:06;5.97;;;3.00;;
14923;SDS011;7554;43.600;1.480;2023-07-16T00:14:33;8.53;;;3.10;;
14923;SDS011;7554;43.600;1.480;2023-07-16T00:17:01;10.40;;;3.13;;
14923;SDS011;7554;43.600;1.480;2023-07-16T00:19:28;9.27;;;3.10;;
14923;SDS011;7554;43.600;1.480;2023-07-16T00:21:56;8.23;;;3.23;;
14923;SDS011;7554;43.600;1.480;2023-07-16T00:24:24;7.13;;;3.23;;
14923;SDS011;7554;43.600;1.480;2023-07-16T00:26:52;8.90;;;3.20;;
14923;SDS011;7554;43.600;1.480;2023-07-16T00:29:19;13.20;;;3.67;;
14923;SDS011;7554;43.600;1.480;2023-07-16T00:31:47;8.67;;;2.70;;
14923;SDS011;7554;43.600;1.480;2023-07-16T00:34:14;8.17;;;3.00;;
14923;SDS011;7554;43.600;1.480;2023-07-16T00:36:41;10.27;;;2.90;;
14923;SDS011;7554;43.600;1.480;2023-07-16T00:39:08;9.13;;;3.27;;
14923;SDS011;7554;43.600;1.480;2023-07-16T00:41:37;11.00;;;3.10;;
14923;SDS011;7554;43.600;1.480;2023-07-16T00:44:05;11.60;;;3.33;;
14923;SDS011;7554;43.600;1.480;2023-07-16T00:46:32;9.60;;;3.00;;
14923;SDS011;7554;43.600;1.480;2023-07-16T00:49:00;7.97;;;2.80;;
14923;SDS011;7554;43.600;1.480;2023-07-16T00:51:28;9.87;;;3.03;;
14923;SDS011;7554;43.600;1.480;2023-07-16T00:53:56;9.83;;;3.50;;
14923;SDS011;7554;43.600;1.480;2023-07-16T00:56:23;10.67;;;3.13;;
14923;SDS011;7554;43.600;1.480;2023-07-16T00:58:52;10.63;;;3.40;;
14923;SDS011;7554;43.600;1.480;2023-07-16T01:01:20;10.10;;;3.63;;
14923;SDS011;7554;43.600;1.480;2023-07-16T01:03:47;9.80;;;2.90;;
14923;SDS011;7554;43.600;1.480;2023-07-16T01:06:15;7.83;;;2.73;;
14923;SDS011;7554;43.600;1.480;2023-07-16T01:08:49;11.90;;;3.03;;
14923;SDS011;7554;43.600;1.480;2023-07-16T01:11:21;9.23;;;3.03;;
14923;SDS011;7554;43.600;1.480;2023-07-16T01:13:50;10.40;;;3.40;;
14923;SDS011;7554;43.600;1.480;2023-07-16T01:16:20;10.87;;;2.97;;
14923;SDS011;7554;43.600;1.480;2023-07-16T01:18:48;12.53;;;3.03;;
14923;SDS011;7554;43.600;1.480;2023-07-16T01:21:16;11.23;;;3.40;;
14923;SDS011;7554;43.600;1.480;2023-07-16T01:23:50;11.73;;;3.47;;
14923;SDS011;7554;43.600;1.480;2023-07-16T01:27:04;10.93;;;3.30;;
14923;SDS011;7554;43.600;1.480;2023-07-16T01:29:50;9.33;;;3.20;;
14923;SDS011;7554;43.600;1.480;2023-07-16T01:32:20;10.03;;;3.13;;
14923;SDS011;7554;43.600;1.480;2023-07-16T01:34:48;9.57;;;3.40;;
14923;SDS011;7554;43.600;1.480;2023-07-16T01:37:18;10.93;;;3.47;;
14923;SDS011;7554;43.600;1.480;2023-07-16T01:39:46;9.90;;;2.93;;
14923;SDS011;7554;43.600;1.480;2023-07-16T01:42:15;9.17;;;2.90;;
14923;SDS011;7554;43.600;1.480;2023-07-16T01:44:42;9.50;;;3.17;;
14923;SDS011;7554;43.600;1.480;2023-07-16T01:47:13;12.63;;;3.50;;
14923;SDS011;7554;43.600;1.480;2023-07-16T01:49:48;12.27;;;3.30;;
14923;SDS011;7554;43.600;1.480;2023-07-16T01:52:15;9.03;;;3.03;;
14923;SDS011;7554;43.600;1.480;2023-07-16T01:54:42;11.33;;;3.57;;
14923;SDS011;7554;43.600;1.480;2023-07-16T01:57:10;12.40;;;3.33;;
14923;SDS011;7554;43.600;1.480;2023-07-16T01:59:37;8.53;;;3.30;;
14923;SDS011;7554;43.600;1.480;2023-07-16T02:02:05;7.90;;;3.00;;
14923;SDS011;7554;43.600;1.480;2023-07-16T02:04:34;9.40;;;3.63;;
14923;SDS011;7554;43.600;1.480;2023-07-16T02:07:01;8.70;;;3.40;;
14923;SDS011;7554;43.600;1.480;2023-07-16T02:09:28;8.80;;;2.40;;
14923;SDS011;7554;43.600;1.480;2023-07-16T02:11:56;12.47;;;2.97;;
14923;SDS011;7554;43.600;1.480;2023-07-16T02:14:23;11.60;;;3.10;;
14923;SDS011;7554;43.600;1.480;2023-07-16T02:16:50;10.57;;;2.93;;
14923;SDS011;7554;43.600;1.480;2023-07-16T02:19:18;8.47;;;2.80;;
14923;SDS011;7554;43.600;1.480;2023-07-16T02:21:46;8.10;;;3.00;;
14923;SDS011;7554;43.600;1.480;2023-07-16T02:24:14;15.10;;;3.33;;
14923;SDS011;7554;43.600;1.480;2023-07-16T02:26:41;13.70;;;2.83;;
14923;SDS011;7554;43.600;1.480;2023-07-16T02:29:08;8.30;;;2.63;;
14923;SDS011;7554;43.600;1.480;2023-07-16T02:31:35;11.80;;;3.10;;
14923;SDS011;7554;43.600;1.480;2023-07-16T02:34:03;13.00;;;3.50;;
14923;SDS011;7554;43.600;1.480;2023-07-16T02:36:30;10.60;;;3.03;;
14923;SDS011;7554;43.600;1.480;2023-07-16T02:38:59;8.27;;;2.80;;
14923;SDS011;7554;43.600;1.480;2023-07-16T02:41:26;10.80;;;3.33;;
14923;SDS011;7554;43.600;1.480;2023-07-16T02:43:58;11.83;;;2.80;;
14923;SDS011;7554;43.600;1.480;2023-07-16T02:46:27;10.13;;;2.83;;
14923;SDS011;7554;43.600;1.480;2023-07-16T02:48:54;10.33;;;3.10;;
14923;SDS011;7554;43.600;1.480;2023-07-16T02:51:21;9.67;;;3.10;;
14923;SDS011;7554;43.600;1.480;2023-07-16T02:53:49;9.43;;;3.30;;
14923;SDS011;7554;43.600;1.480;2023-07-16T02:56:18;11.23;;;3.13;;
14923;SDS011;7554;43.600;1.480;2023-07-16T02:58:45;8.10;;;2.67;;
14923;SDS011;7554;43.600;1.480;2023-07-16T03:01:12;11.27;;;3.60;;
14923;SDS011;7554;43.600;1.480;2023-07-16T03:03:40;10.10;;;2.70;;
14923;SDS011;7554;43.600;1.480;2023-07-16T03:06:07;10.90;;;3.00;;
14923;SDS011;7554;43.600;1.480;2023-07-16T03:08:34;8.13;;;3.20;;
14923;SDS011;7554;43.600;1.480;2023-07-16T03:11:02;8.70;;;3.03;;
14923;SDS011;7554;43.600;1.480;2023-07-16T03:13:30;10.80;;;2.60;;
14923;SDS011;7554;43.600;1.480;2023-07-16T03:15:58;10.83;;;2.80;;
14923;SDS011;7554;43.600;1.480;2023-07-16T03:18:27;9.43;;;2.83;;
14923;SDS011;7554;43.600;1.480;2023-07-16T03:20:55;7.13;;;2.70;;
14923;SDS011;7554;43.600;1.480;2023-07-16T03:23:23;9.97;;;3.20;;
14923;SDS011;7554;43.600;1.480;2023-07-16T03:25:51;7.90;;;2.60;;
14923;SDS011;7554;43.600;1.480;2023-07-16T03:28:18;11.50;;;2.47;;
14923;SDS011;7554;43.600;1.480;2023-07-16T03:30:47;9.67;;;2.90;;
14923;SDS011;7554;43.600;1.480;2023-07-16T03:33:15;10.40;;;2.77;;
14923;SDS011;7554;43.600;1.480;2023-07-16T03:35:43;8.87;;;2.73;;
14923;SDS011;7554;43.600;1.480;2023-07-16T03:38:10;10.37;;;3.00;;
14923;SDS011;7554;43.600;1.480;2023-07-16T03:40:38;9.27;;;2.30;;
14923;SDS011;7554;43.600;1.480;2023-07-16T03:43:06;12.60;;;2.87;;
14923;SDS011;7554;43.600;1.480;2023-07-16T03:45:33;8.60;;;2.50;;
14923;SDS011;7554;43.600;1.480;2023-07-16T03:48:02;7.17;;;2.60;;
14923;SDS011;7554;43.600;1.480;2023-07-16T03:50:30;10.30;;;2.60;;
14923;SDS011;7554;43.600;1.480;2023-07-16T03:52:57;11.40;;;3.00;;
14923;SDS011;7554;43.600;1.480;2023-07-16T03:55:25;6.57;;;2.70;;
14923;SDS011;7554;43.600;1.480;2023-07-16T03:57:52;10.23;;;2.60;;
14923;SDS011;7554;43.600;1.480;2023-07-16T04:00:20;7.70;;;2.60;;
14923;SDS011;7554;43.600;1.480;2023-07-16T04:02:47;6.47;;;2.57;;
14923;SDS011;7554;43.600;1.480;2023-07-16T04:05:16;8.10;;;2.73;;
14923;SDS011;7554;43.600;1.480;2023-07-16T04:07:43;9.83;;;2.60;;
14923;SDS011;7554;43.600;1.480;2023-07-16T04:10:10;10.00;;;2.60;;
14923;SDS011;7554;43.600;1.480;2023-07-16T04:12:38;7.07;;;2.67;;
14923;SDS011;7554;43.600;1.480;2023-07-16T04:15:07;10.17;;;2.70;;
14923;SDS011;7554;43.600;1.480;2023-07-16T04:17:35;8.73;;;2.70;;
14923;SDS011;7554;43.600;1.480;2023-07-16T04:20:03;8.63;;;2.63;;
14923;SDS011;7554;43.600;1.480;2023-07-16T04:22:33;8.80;;;2.77;;
14923;SDS011;7554;43.600;1.480;2023-07-16T04:25:01;11.00;;;3.27;;
14923;SDS011;7554;43.600;1.480;2023-07-16T04:27:29;11.03;;;2.50;;
14923;SDS011;7554;43.600;1.480;2023-07-16T04:29:56;8.73;;;2.43;;
14923;SDS011;7554;43.600;1.480;2023-07-16T04:32:23;9.30;;;2.30;;
14923;SDS011;7554;43.600;1.480;2023-07-16T04:34:50;13.20;;;3.20;;
14923;SDS011;7554;43.600;1.480;2023-07-16T04:37:18;10.03;;;2.70;;
14923;SDS011;7554;43.600;1.480;2023-07-16T04:39:47;7.07;;;2.50;;
14923;SDS011;7554;43.600;1.480;2023-07-16T04:42:14;9.77;;;3.17;;
14923;SDS011;7554;43.600;1.480;2023-07-16T04:44:42;7.53;;;2.50;;
14923;SDS011;7554;43.600;1.480;2023-07-16T04:47:09;14.50;;;2.90;;
14923;SDS011;7554;43.600;1.480;2023-07-16T04:49:36;13.00;;;2.80;;
14923;SDS011;7554;43.600;1.480;2023-07-16T04:52:04;12.70;;;3.37;;
14923;SDS011;7554;43.600;1.480;2023-07-16T04:54:34;7.07;;;2.87;;
14923;SDS011;7554;43.600;1.480;2023-07-16T04:57:05;10.97;;;2.77;;
14923;SDS011;7554;43.600;1.480;2023-07-16T04:59:33;11.03;;;2.47;;
14923;SDS011;7554;43.600;1.480;2023-07-16T05:02:02;9.30;;;2.70;;
14923;SDS011;7554;43.600;1.480;2023-07-16T05:04:31;11.97;;;3.40;;
14923;SDS011;7554;43.600;1.480;2023-07-16T05:06:58;9.50;;;3.00;;
14923;SDS011;7554;43.600;1.480;2023-07-16T05:09:27;9.97;;;3.10;;
14923;SDS011;7554;43.600;1.480;2023-07-16T05:11:54;9.63;;;3.03;;
14923;SDS011;7554;43.600;1.480;2023-07-16T05:14:25;12.73;;;3.40;;
14923;SDS011;7554;43.600;1.480;2023-07-16T05:16:54;12.13;;;3.40;;
14923;SDS011;7554;43.600;1.480;2023-07-16T05:19:21;10.00;;;3.07;;
14923;SDS011;7554;43.600;1.480;2023-07-16T05:21:49;12.20;;;2.50;;
14923;SDS011;7554;43.600;1.480;2023-07-16T05:24:16;11.97;;;2.70;;
14923;SDS011;7554;43.600;1.480;2023-07-16T05:26:44;11.40;;;3.03;;
14923;SDS011;7554;43.600;1.480;2023-07-16T05:29:11;14.27;;;2.73;;
14923;SDS011;7554;43.600;1.480;2023-07-16T05:31:40;10.77;;;2.80;;
14923;SDS011;7554;43.600;1.480;2023-07-16T05:34:11;9.97;;;2.77;;
14923;SDS011;7554;43.600;1.480;2023-07-16T05:36:40;7.87;;;2.70;;
14923;SDS011;7554;43.600;1.480;2023-07-16T05:39:09;8.23;;;2.90;;
14923;SDS011;7554;43.600;1.480;2023-07-16T05:41:38;12.27;;;3.07;;
14923;SDS011;7554;43.600;1.480;2023-07-16T05:44:06;11.20;;;3.00;;
14923;SDS011;7554;43.600;1.480;2023-07-16T05:46:33;8.90;;;2.60;;
14923;SDS011;7554;43.600;1.480;2023-07-16T05:49:02;11.43;;;3.30;;
14923;SDS011;7554;43.600;1.480;2023-07-16T05:51:29;8.83;;;2.77;;
14923;SDS011;7554;43.600;1.480;2023-07-16T05:53:57;17.40;;;6.27;;
14923;SDS011;7554;43.600;1.480;2023-07-16T05:56:24;10.70;;;3.33;;
14923;SDS011;7554;43.600;1.480;2023-07-16T05:58:51;9.57;;;2.90;;
14923;SDS011;7554;43.600;1.480;2023-07-16T06:01:19;11.83;;;2.40;;
14923;SDS011;7554;43.600;1.480;2023-07-16T06:03:46;8.63;;;2.57;;
14923;SDS011;7554;43.600;1.480;2023-07-16T06:06:15;12.27;;;2.67;;
14923;SDS011;7554;43.600;1.480;2023-07-16T06:08:42;12.70;;;3.17;;
14923;SDS011;7554;43.600;1.480;2023-07-16T06:11:09;8.40;;;2.50;;
14923;SDS011;7554;43.600;1.480;2023-07-16T06:13:37;7.43;;;2.67;;
14923;SDS011;7554;43.600;1.480;2023-07-16T06:16:04;8.67;;;2.77;;
14923;SDS011;7554;43.600;1.480;2023-07-16T06:18:32;10.73;;;2.70;;
14923;SDS011;7554;43.600;1.480;2023-07-16T06:20:59;9.90;;;2.80;;
14923;SDS011;7554;43.600;1.480;2023-07-16T06:23:28;8.57;;;2.80;;
14923;SDS011;7554;43.600;1.480;2023-07-16T06:25:55;8.77;;;2.80;;
14923;SDS011;7554;43.600;1.480;2023-07-16T06:28:23;7.97;;;2.60;;
14923;SDS011;7554;43.600;1.480;2023-07-16T06:30:50;7.50;;;2.50;;
14923;SDS011;7554;43.600;1.480;2023-07-16T06:33:18;7.43;;;2.37;;
14923;SDS011;7554;43.600;1.480;2023-07-16T06:35:45;8.77;;;2.57;;
14923;SDS011;7554;43.600;1.480;2023-07-16T06:38:13;10.93;;;2.67;;
14923;SDS011;7554;43.600;1.480;2023-07-16T06:40:46;8.50;;;2.77;;
14923;SDS011;7554;43.600;1.480;2023-07-16T06:43:14;9.50;;;3.10;;
14923;SDS011;7554;43.600;1.480;2023-07-16T06:45:42;8.30;;;2.60;;
14923;SDS011;7554;43.600;1.480;2023-07-16T06:48:09;10.37;;;2.80;;
14923;SDS011;7554;43.600;1.480;2023-07-16T06:50:37;8.33;;;2.63;;
14923;SDS011;7554;43.600;1.480;2023-07-16T06:53:04;9.43;;;2.60;;
14923;SDS011;7554;43.600;1.480;2023-07-16T06:55:31;19.33;;;7.30;;
14923;SDS011;7554;43.600;1.480;2023-07-16T06:58:00;9.53;;;2.50;;
14923;SDS011;7554;43.600;1.480;2023-07-16T07:00:28;7.70;;;2.40;;
14923;SDS011;7554;43.600;1.480;2023-07-16T07:02:55;8.88;;;2.45;;
14923;SDS011;7554;43.600;1.480;2023-07-16T07:05:23;8.25;;;2.67;;
14923;SDS011;7554;43.600;1.480;2023-07-16T07:07:50;10.43;;;2.67;;
14923;SDS011;7554;43.600;1.480;2023-07-16T07:10:17;9.35;;;2.55;;
14923;SDS011;7554;43.600;1.480;2023-07-16T07:12:45;10.65;;;2.63;;
14923;SDS011;7554;43.600;1.480;2023-07-16T07:15:13;6.68;;;2.45;;
14923;SDS011;7554;43.600;1.480;2023-07-16T07:17:41;8.07;;;2.72;;
14923;SDS011;7554;43.600;1.480;2023-07-16T07:20:12;8.52;;;2.22;;
14923;SDS011;7554;43.600;1.480;2023-07-16T07:22:40;6.15;;;2.22;;
14923;SDS011;7554;43.600;1.480;2023-07-16T07:25:07;9.13;;;2.60;;
14923;SDS011;7554;43.600;1.480;2023-07-16T07:27:34;5.38;;;2.30;;
14923;SDS011;7554;43.600;1.480;2023-07-16T07:30:02;7.05;;;2.42;;
14923;SDS011;7554;43.600;1.480;2023-07-16T07:32:31;6.50;;;2.13;;
14923;SDS011;7554;43.600;1.480;2023-07-16T07:34:59;8.93;;;2.22;;
14923;SDS011;7554;43.600;1.480;2023-07-16T07:37:26;8.90;;;2.40;;
14923;SDS011;7554;43.600;1.480;2023-07-16T07:39:53;7.18;;;2.42;;
14923;SDS011;7554;43.600;1.480;2023-07-16T07:42:21;6.93;;;2.55;;
14923;SDS011;7554;43.600;1.480;2023-07-16T07:44:48;7.50;;;2.30;;
14923;SDS011;7554;43.600;1.480;2023-07-16T07:47:15;8.52;;;2.42;;
14923;SDS011;7554;43.600;1.480;2023-07-16T07:49:44;7.70;;;2.40;;
14923;SDS011;7554;43.600;1.480;2023-07-16T07:52:11;6.97;;;2.15;;
14923;SDS011;7554;43.600;1.480;2023-07-16T07:54:39;6.70;;;2.05;;
14923;SDS011;7554;43.600;1.480;2023-07-16T07:57:07;10.48;;;2.72;;
14923;SDS011;7554;43.600;1.480;2023-07-16T07:59:34;5.75;;;2.17;;
14923;SDS011;7554;43.600;1.480;2023-07-16T08:02:01;10.88;;;3.15;;
14923;SDS011;7554;43.600;1.480;2023-07-16T08:04:29;6.28;;;2.28;;
14923;SDS011;7554;43.600;1.480;2023-07-16T08:06:58;6.63;;;2.38;;
14923;SDS011;7554;43.600;1.480;2023-07-16T08:09:26;8.35;;;2.70;;
14923;SDS011;7554;43.600;1.480;2023-07-16T08:11:54;6.75;;;2.35;;
14923;SDS011;7554;43.600;1.480;2023-07-16T08:14:22;9.10;;;2.80;;
14923;SDS011;7554;43.600;1.480;2023-07-16T08:16:49;5.88;;;2.22;;
14923;SDS011;7554;43.600;1.480;2023-07-16T08:19:16;8.38;;;2.40;;
14923;SDS011;7554;43.600;1.480;2023-07-16T08:21:44;7.35;;;2.35;;
14923;SDS011;7554;43.600;1.480;2023-07-16T08:24:12;5.65;;;2.63;;
14923;SDS011;7554;43.600;1.480;2023-07-16T08:26:40;6.10;;;2.25;;
14923;SDS011;7554;43.600;1.480;2023-07-16T08:29:07;6.05;;;2.03;;
14923;SDS011;7554;43.600;1.480;2023-07-16T08:31:34;5.70;;;2.30;;
14923;SDS011;7554;43.600;1.480;2023-07-16T08:34:02;5.93;;;2.63;;
14923;SDS011;7554;43.600;1.480;2023-07-16T08:36:29;7.20;;;2.33;;
14923;SDS011;7554;43.600;1.480;2023-07-16T08:38:56;9.25;;;2.28;;
14923;SDS011;7554;43.600;1.480;2023-07-16T08:41:25;7.68;;;2.63;;
14923;SDS011;7554;43.600;1.480;2023-07-16T08:43:53;13.60;;;2.65;;
14923;SDS011;7554;43.600;1.480;2023-07-16T08:46:20;6.35;;;2.63;;
14923;SDS011;7554;43.600;1.480;2023-07-16T08:48:48;7.82;;;2.50;;
14923;SDS011;7554;43.600;1.480;2023-07-16T08:51:15;6.40;;;2.90;;
14923;SDS011;7554;43.600;1.480;2023-07-16T08:53:43;8.13;;;2.53;;
14923;SDS011;7554;43.600;1.480;2023-07-16T08:56:10;6.72;;;2.10;;
14923;SDS011;7554;43.600;1.480;2023-07-16T08:58:39;6.07;;;2.17;;
14923;SDS011;7554;43.600;1.480;2023-07-16T09:01:09;8.13;;;2.50;;
14923;SDS011;7554;43.600;1.480;2023-07-16T09:03:36;6.55;;;1.92;;
14923;SDS011;7554;43.600;1.480;2023-07-16T09:06:04;6.88;;;1.75;;
14923;SDS011;7554;43.600;1.480;2023-07-16T09:08:31;5.00;;;1.98;;
14923;SDS011;7554;43.600;1.480;2023-07-16T09:10:58;5.40;;;2.03;;
14923;SDS011;7554;43.600;1.480;2023-07-16T09:13:26;7.18;;;2.38;;
14923;SDS011;7554;43.600;1.480;2023-07-16T09:15:55;7.70;;;2.00;;
14923;SDS011;7554;43.600;1.480;2023-07-16T09:18:24;4.25;;;1.88;;
14923;SDS011;7554;43.600;1.480;2023-07-16T09:20:54;6.32;;;2.28;;
14923;SDS011;7554;43.600;1.480;2023-07-16T09:23:23;7.57;;;1.92;;
14923;SDS011;7554;43.600;1.480;2023-07-16T09:25:53;5.63;;;2.03;;
14923;SDS011;7554;43.600;1.480;2023-07-16T09:28:20;6.20;;;1.90;;
14923;SDS011;7554;43.600;1.480;2023-07-16T09:30:48;7.47;;;2.25;;
14923;SDS011;7554;43.600;1.480;2023-07-16T09:33:18;6.25;;;1.92;;
14923;SDS011;7554;43.600;1.480;2023-07-16T09:35:47;5.50;;;2.30;;
14923;SDS011;7554;43.600;1.480;2023-07-16T09:38:16;6.15;;;2.15;;
14923;SDS011;7554;43.600;1.480;2023-07-16T09:40:44;4.97;;;1.88;;
14923;SDS011;7554;43.600;1.480;2023-07-16T09:43:12;4.18;;;1.80;;
14923;SDS011;7554;43.600;1.480;2023-07-16T09:45:40;9.38;;;1.73;;
14923;SDS011;7554;43.600;1.480;2023-07-16T09:48:08;7.00;;;1.90;;
14923;SDS011;7554;43.600;1.480;2023-07-16T09:50:37;6.28;;;1.90;;
14923;SDS011;7554;43.600;1.480;2023-07-16T09:53:07;5.05;;;2.05;;
14923;SDS011;7554;43.600;1.480;2023-07-16T09:55:35;5.28;;;1.60;;
14923;SDS011;7554;43.600;1.480;2023-07-16T09:58:09;3.72;;;1.70;;
14923;SDS011;7554;43.600;1.480;2023-07-16T10:00:38;7.57;;;2.10;;
14923;SDS011;7554;43.600;1.480;2023-07-16T10:03:07;6.30;;;1.92;;
14923;SDS011;7554;43.600;1.480;2023-07-16T10:05:35;6.10;;;2.00;;
14923;SDS011;7554;43.600;1.480;2023-07-16T10:08:14;4.28;;;1.80;;
14923;SDS011;7554;43.600;1.480;2023-07-16T10:10:43;9.50;;;2.25;;
14923;SDS011;7554;43.600;1.480;2023-07-16T10:13:13;7.00;;;1.92;;
14923;SDS011;7554;43.600;1.480;2023-07-16T10:15:50;5.45;;;2.00;;
14923;SDS011;7554;43.600;1.480;2023-07-16T10:18:25;3.80;;;1.85;;
14923;SDS011;7554;43.600;1.480;2023-07-16T10:21:01;6.03;;;1.98;;
14923;SDS011;7554;43.600;1.480;2023-07-16T10:23:37;3.85;;;2.22;;
14923;SDS011;7554;43.600;1.480;2023-07-16T10:26:06;3.97;;;1.60;;
14923;SDS011;7554;43.600;1.480;2023-07-16T10:28:34;9.07;;;2.00;;
14923;SDS011;7554;43.600;1.480;2023-07-16T10:31:02;4.63;;;1.60;;
14923;SDS011;7554;43.600;1.480;2023-07-16T10:33:30;3.50;;;1.42;;
14923;SDS011;7554;43.600;1.480;2023-07-16T10:35:57;5.30;;;2.13;;
14923;SDS011;7554;43.600;1.480;2023-07-16T10:38:27;4.10;;;1.85;;
14923;SDS011;7554;43.600;1.480;2023-07-16T10:40:55;6.47;;;1.73;;
14923;SDS011;7554;43.600;1.480;2023-07-16T10:43:23;6.03;;;1.70;;
14923;SDS011;7554;43.600;1.480;2023-07-16T10:45:51;4.63;;;1.50;;
14923;SDS011;7554;43.600;1.480;2023-07-16T10:48:24;4.32;;;1.50;;
14923;SDS011;7554;43.600;1.480;2023-07-16T10:50:53;3.92;;;1.80;;
14923;SDS011;7554;43.600;1.480;2023-07-16T10:53:20;4.82;;;1.80;;
14923;SDS011;7554;43.600;1.480;2023-07-16T10:55:49;5.78;;;1.98;;
14923;SDS011;7554;43.600;1.480;2023-07-16T10:58:16;5.72;;;1.80;;
14923;SDS011;7554;43.600;1.480;2023-07-16T11:00:44;5.88;;;1.60;;
14923;SDS011;7554;43.600;1.480;2023-07-16T11:03:14;4.82;;;1.65;;
14923;SDS011;7554;43.600;1.480;2023-07-16T11:05:44;5.15;;;1.80;;
14923;SDS011;7554;43.600;1.480;2023-07-16T11:08:21;4.38;;;1.65;;
14923;SDS011;7554;43.600;1.480;2023-07-16T11:10:54;5.68;;;2.05;;
14923;SDS011;7554;43.600;1.480;2023-07-16T11:13:25;3.70;;;1.63;;
14923;SDS011;7554;43.600;1.480;2023-07-16T11:15:53;4.45;;;1.63;;
14923;SDS011;7554;43.600;1.480;2023-07-16T11:18:22;5.93;;;1.80;;
14923;SDS011;7554;43.600;1.480;2023-07-16T11:20:50;5.43;;;1.85;;
14923;SDS011;7554;43.600;1.480;2023-07-16T11:23:18;5.40;;;1.52;;
14923;SDS011;7554;43.600;1.480;2023-07-16T11:25:46;5.13;;;1.70;;
14923;SDS011;7554;43.600;1.480;2023-07-16T11:28:16;4.57;;;2.15;;
14923;SDS011;7554;43.600;1.480;2023-07-16T11:30:43;3.72;;;1.52;;
14923;SDS011;7554;43.600;1.480;2023-07-16T11:33:10;5.85;;;1.50;;
14923;SDS011;7554;43.600;1.480;2023-07-16T11:35:39;4.75;;;1.75;;
14923;SDS011;7554;43.600;1.480;2023-07-16T11:38:06;4.10;;;1.73;;
14923;SDS011;7554;43.600;1.480;2023-07-16T11:40:34;5.05;;;1.70;;
14923;SDS011;7554;43.600;1.480;2023-07-16T11:43:07;5.35;;;1.67;;
14923;SDS011;7554;43.600;1.480;2023-07-16T11:45:37;5.82;;;1.80;;
14923;SDS011;7554;43.600;1.480;2023-07-16T11:48:05;4.30;;;1.67;;
14923;SDS011;7554;43.600;1.480;2023-07-16T11:50:32;4.75;;;1.75;;
14923;SDS011;7554;43.600;1.480;2023-07-16T11:53:00;6.00;;;1.77;;
14923;SDS011;7554;43.600;1.480;2023-07-16T11:55:28;4.75;;;1.92;;
14923;SDS011;7554;43.600;1.480;2023-07-16T11:57:55;4.55;;;1.77;;
14923;SDS011;7554;43.600;1.480;2023-07-16T12:00:24;3.70;;;1.98;;
14923;SDS011;7554;43.600;1.480;2023-07-16T12:02:53;5.72;;;2.20;;
14923;SDS011;7554;43.600;1.480;2023-07-16T12:05:21;4.68;;;2.17;;
14923;SDS011;7554;43.600;1.480;2023-07-16T12:07:51;5.00;;;1.60;;
14923;SDS011;7554;43.600;1.480;2023-07-16T12:10:19;4.05;;;1.67;;
14923;SDS011;7554;43.600;1.480;2023-07-16T12:12:46;4.10;;;1.63;;
14923;SDS011;7554;43.600;1.480;2023-07-16T12:15:13;4.53;;;1.73;;
14923;SDS011;7554;43.600;1.480;2023-07-16T12:17:40;3.85;;;1.63;;
14923;SDS011;7554;43.600;1.480;2023-07-16T12:20:09;9.43;;;1.98;;
14923;SDS011;7554;43.600;1.480;2023-07-16T12:22:37;8.52;;;1.80;;
14923;SDS011;7554;43.600;1.480;2023-07-16T12:25:05;3.58;;;1.73;;
14923;SDS011;7554;43.600;1.480;2023-07-16T12:27:33;3.97;;;1.80;;
14923;SDS011;7554;43.600;1.480;2023-07-16T12:30:00;7.32;;;2.03;;
14923;SDS011;7554;43.600;1.480;2023-07-16T12:32:27;5.13;;;2.00;;
14923;SDS011;7554;43.600;1.480;2023-07-16T12:34:55;4.28;;;1.80;;
14923;SDS011;7554;43.600;1.480;2023-07-16T12:37:26;3.72;;;1.98;;
14923;SDS011;7554;43.600;1.480;2023-07-16T12:39:54;5.75;;;1.83;;
14923;SDS011;7554;43.600;1.480;2023-07-16T12:42:21;4.97;;;1.80;;
14923;SDS011;7554;43.600;1.480;2023-07-16T12:44:48;4.60;;;1.70;;
14923;SDS011;7554;43.600;1.480;2023-07-16T12:47:16;6.22;;;2.00;;
14923;SDS011;7554;43.600;1.480;2023-07-16T12:49:43;4.38;;;1.85;;
14923;SDS011;7554;43.600;1.480;2023-07-16T12:52:10;4.50;;;2.00;;
14923;SDS011;7554;43.600;1.480;2023-07-16T12:54:39;5.40;;;1.88;;
14923;SDS011;7554;43.600;1.480;2023-07-16T12:57:06;5.90;;;1.75;;
14923;SDS011;7554;43.600;1.480;2023-07-16T12:59:34;3.20;;;1.67;;
14923;SDS011;7554;43.600;1.480;2023-07-16T13:02:01;5.05;;;1.67;;
14923;SDS011;7554;43.600;1.480;2023-07-16T13:04:29;3.97;;;1.88;;
14923;SDS011;7554;43.600;1.480;2023-07-16T13:06:56;3.50;;;1.92;;
14923;SDS011;7554;43.600;1.480;2023-07-16T13:09:24;5.50;;;1.70;;
14923;SDS011;7554;43.600;1.480;2023-07-16T13:11:52;5.18;;;2.22;;
14923;SDS011;7554;43.600;1.480;2023-07-16T13:14:20;6.03;;;1.95;;
14923;SDS011;7554;43.600;1.480;2023-07-16T13:16:47;5.60;;;1.98;;
14923;SDS011;7554;43.600;1.480;2023-07-16T13:19:14;4.85;;;1.60;;
14923;SDS011;7554;43.600;1.480;2023-07-16T13:21:42;3.83;;;1.55;;
14923;SDS011;7554;43.600;1.480;2023-07-16T13:24:09;5.40;;;1.77;;
14923;SDS011;7554;43.600;1.480;2023-07-16T13:26:36;4.30;;;1.92;;
14923;SDS011;7554;43.600;1.480;2023-07-16T13:29:05;6.03;;;1.92;;
14923;SDS011;7554;43.600;1.480;2023-07-16T13:31:32;6.40;;;2.20;;
14923;SDS011;7554;43.600;1.480;2023-07-16T13:33:59;5.47;;;2.20;;
14923;SDS011;7554;43.600;1.480;2023-07-16T13:36:27;3.75;;;1.77;;
14923;SDS011;7554;43.600;1.480;2023-07-16T13:38:54;3.78;;;2.10;;
14923;SDS011;7554;43.600;1.480;2023-07-16T13:41:21;5.60;;;1.90;;
14923;SDS011;7554;43.600;1.480;2023-07-16T13:43:49;3.28;;;1.70;;
14923;SDS011;7554;43.600;1.480;2023-07-16T13:46:17;4.78;;;2.10;;
14923;SDS011;7554;43.600;1.480;2023-07-16T13:48:45;2.60;;;1.55;;
14923;SDS011;7554;43.600;1.480;2023-07-16T13:51:12;6.78;;;2.30;;
14923;SDS011;7554;43.600;1.480;2023-07-16T13:53:39;5.63;;;2.25;;
14923;SDS011;7554;43.600;1.480;2023-07-16T13:56:06;3.97;;;1.77;;
14923;SDS011;7554;43.600;1.480;2023-07-16T13:58:34;5.93;;;2.90;;
14923;SDS011;7554;43.600;1.480;2023-07-16T14:01:01;6.72;;;2.20;;
14923;SDS011;7554;43.600;1.480;2023-07-16T14:03:30;4.85;;;2.00;;
14923;SDS011;7554;43.600;1.480;2023-07-16T14:05:58;5.10;;;2.20;;
14923;SDS011;7554;43.600;1.480;2023-07-16T14:08:25;3.45;;;2.10;;
14923;SDS011;7554;43.600;1.480;2023-07-16T14:10:53;3.85;;;1.83;;
14923;SDS011;7554;43.600;1.480;2023-07-16T14:13:21;4.82;;;2.13;;
14923;SDS011;7554;43.600;1.480;2023-07-16T14:15:48;4.03;;;1.80;;
14923;SDS011;7554;43.600;1.480;2023-07-16T14:18:15;5.82;;;1.88;;
14923;SDS011;7554;43.600;1.480;2023-07-16T14:20:44;4.53;;;2.08;;
14923;SDS011;7554;43.600;1.480;2023-07-16T14:23:11;6.28;;;2.10;;
14923;SDS011;7554;43.600;1.480;2023-07-16T14:25:38;5.15;;;1.67;;
14923;SDS011;7554;43.600;1.480;2023-07-16T14:28:06;5.68;;;2.08;;
14923;SDS011;7554;43.600;1.480;2023-07-16T14:30:33;4.47;;;1.70;;
14923;SDS011;7554;43.600;1.480;2023-07-16T14:33:00;4.15;;;2.10;;
14923;SDS011;7554;43.600;1.480;2023-07-16T14:35:29;5.75;;;1.73;;
14923;SDS011;7554;43.600;1.480;2023-07-16T14:37:58;5.20;;;2.60;;
14923;SDS011;7554;43.600;1.480;2023-07-16T14:40:25;3.47;;;1.90;;
14923;SDS011;7554;43.600;1.480;2023-07-16T14:42:52;5.07;;;1.90;;
14923;SDS011;7554;43.600;1.480;2023-07-16T14:45:19;6.13;;;2.10;;
14923;SDS011;7554;43.600;1.480;2023-07-16T14:47:47;4.55;;;1.40;;
14923;SDS011;7554;43.600;1.480;2023-07-16T14:50:14;5.78;;;2.13;;
14923;SDS011;7554;43.600;1.480;2023-07-16T14:52:42;3.50;;;1.77;;
14923;SDS011;7554;43.600;1.480;2023-07-16T14:55:11;6.50;;;1.98;;
14923;SDS011;7554;43.600;1.480;2023-07-16T14:57:38;5.82;;;1.75;;
14923;SDS011;7554;43.600;1.480;2023-07-16T15:00:06;5.50;;;1.83;;
14923;SDS011;7554;43.600;1.480;2023-07-16T15:02:36;5.35;;;2.00;;
14923;SDS011;7554;43.600;1.480;2023-07-16T15:05:03;4.82;;;2.25;;